createdAt,value
2018-07-16T00:00:58.743Z,0.00
2018-07-16T00:01:58.744Z,0.00
2018-07-16T00:02:58.745Z,0.00
2018-07-16T00:03:58.744Z,0.00
2018-07-16T00:04:58.746Z,0.00
2018-07-16T00:05:58.747Z,0.00
2018-07-16T00:06:58.746Z,0.00
2018-07-16T00:07:58.747Z,0.00
2018-07-16T00:08:58.749Z,0.00
2018-07-16T00:09:58.747Z,0.00
2018-07-16T00:10:58.749Z,0.00
2018-07-16T00:11:58.749Z,0.00
2018-07-16T00:12:58.749Z,0.00
2018-07-16T00:13:58.751Z,0.00
2018-07-16T00:14:58.751Z,0.00
2018-07-16T00:15:58.751Z,0.00
2018-07-16T00:16:58.752Z,0.00
2018-07-16T00:17:58.753Z,0.00
2018-07-16T00:18:58.754Z,0.00
2018-07-16T00:19:58.754Z,0.00
2018-07-16T00:20:58.755Z,0.00
2018-07-16T00:21:58.756Z,0.00
2018-07-16T00:22:58.756Z,0.00
2018-07-16T00:23:58.757Z,0.00
2018-07-16T00:24:58.756Z,0.00
2018-07-16T00:25:58.757Z,0.00
2018-07-16T00:26:58.759Z,0.00
2018-07-16T00:27:58.759Z,0.00
2018-07-16T00:28:58.759Z,0.00
2018-07-16T00:29:58.759Z,0.00
2018-07-16T00:30:58.761Z,0.00
2018-07-16T00:31:58.763Z,0.00
2018-07-16T00:32:58.763Z,0.00
2018-07-16T00:33:58.762Z,0.00
2018-07-16T00:34:58.765Z,0.00
2018-07-16T00:35:58.762Z,0.00
2018-07-16T00:36:58.764Z,0.00
2018-07-16T00:37:58.765Z,0.00
2018-07-16T00:38:58.765Z,0.00
2018-07-16T00:39:58.765Z,0.00
2018-07-16T00:40:58.766Z,0.00
2018-07-16T00:41:58.767Z,0.00
2018-07-16T00:42:58.767Z,0.00
2018-07-16T00:43:58.767Z,0.00
2018-07-16T00:44:58.769Z,0.00
2018-07-16T00:45:58.769Z,0.00
2018-07-16T00:46:58.769Z,0.00
2018-07-16T00:47:58.768Z,0.00
2018-07-16T00:48:58.769Z,0.00
2018-07-16T00:49:58.769Z,0.00
2018-07-16T00:50:58.772Z,0.00
2018-07-16T00:51:58.770Z,0.00
2018-07-16T00:52:58.770Z,0.00
2018-07-16T00:53:58.772Z,0.00
2018-07-16T00:54:58.773Z,0.00
2018-07-16T00:55:58.774Z,0.00
2018-07-16T00:56:58.773Z,0.00
2018-07-16T00:57:58.774Z,0.00
2018-07-16T00:58:58.774Z,0.00
2018-07-16T00:59:58.774Z,0.00
2018-07-16T01:00:58.774Z,0.00
2018-07-16T01:01:58.776Z,0.00
2018-07-16T01:02:58.777Z,0.00
2018-07-16T01:03:58.777Z,0.00
2018-07-16T01:04:58.777Z,0.00
2018-07-16T01:05:58.778Z,0.00
2018-07-16T01:06:58.778Z,0.00
2018-07-16T01:07:58.778Z,0.00
2018-07-16T01:08:58.778Z,0.00
2018-07-16T01:09:58.779Z,0.00
2018-07-16T01:10:58.778Z,0.00
2018-07-16T01:11:58.780Z,0.00
2018-07-16T01:12:58.781Z,0.00
2018-07-16T01:13:58.781Z,0.00
2018-07-16T01:14:58.781Z,0.00
2018-07-16T01:15:58.780Z,0.00
2018-07-16T01:16:58.781Z,0.00
2018-07-16T01:17:58.781Z,0.00
2018-07-16T01:18:58.783Z,0.00
2018-07-16T01:19:58.781Z,0.00
2018-07-16T01:20:58.781Z,0.00
2018-07-16T01:21:58.783Z,0.00
2018-07-16T01:22:58.785Z,0.00
2018-07-16T01:23:58.783Z,0.00
2018-07-16T01:24:58.787Z,0.00
2018-07-16T01:25:58.785Z,0.00
2018-07-16T01:26:58.784Z,0.00
2018-07-16T01:27:58.784Z,0.00
2018-07-16T01:28:58.784Z,0.00
2018-07-16T01:29:58.786Z,0.00
2018-07-16T01:30:58.785Z,0.00
2018-07-16T01:31:58.784Z,0.00
2018-07-16T01:32:58.786Z,0.00
2018-07-16T01:33:58.787Z,0.00
2018-07-16T01:34:58.787Z,0.00
2018-07-16T01:35:58.786Z,0.00
2018-07-16T01:36:58.787Z,0.00
2018-07-16T01:37:58.788Z,0.00
2018-07-16T01:38:58.788Z,0.00
2018-07-16T01:39:58.788Z,0.00
2018-07-16T01:40:58.787Z,0.00
2018-07-16T01:41:58.788Z,0.00
2018-07-16T01:42:58.790Z,0.00
2018-07-16T01:43:58.790Z,0.00
2018-07-16T01:44:58.793Z,0.00
2018-07-16T01:45:58.790Z,0.00
2018-07-16T01:46:58.789Z,0.00
2018-07-16T01:47:58.789Z,0.00
2018-07-16T01:48:58.794Z,0.00
2018-07-16T01:49:58.792Z,0.00
2018-07-16T01:50:58.791Z,0.00
2018-07-16T01:51:58.791Z,0.00
2018-07-16T01:52:58.790Z,0.00
2018-07-16T01:53:58.792Z,0.00
2018-07-16T01:54:58.792Z,0.00
2018-07-16T01:55:58.796Z,0.00
2018-07-16T01:56:58.793Z,0.00
2018-07-16T01:57:58.793Z,0.00
2018-07-16T01:58:58.794Z,0.00
2018-07-16T01:59:58.793Z,0.00
2018-07-16T02:00:58.793Z,0.00
2018-07-16T02:01:58.794Z,0.00
2018-07-16T02:02:58.794Z,0.00
2018-07-16T02:03:58.794Z,0.00
2018-07-16T02:04:58.794Z,0.00
2018-07-16T02:05:58.795Z,0.00
2018-07-16T02:06:58.795Z,0.00
2018-07-16T02:07:58.795Z,0.00
2018-07-16T02:08:58.794Z,0.00
2018-07-16T02:09:58.795Z,0.00
2018-07-16T02:10:58.796Z,0.00
2018-07-16T02:11:58.796Z,0.00
2018-07-16T02:12:58.795Z,0.00
2018-07-16T02:13:58.797Z,0.00
2018-07-16T02:14:58.798Z,0.00
2018-07-16T02:15:58.797Z,0.00
2018-07-16T02:16:58.797Z,0.00
2018-07-16T02:17:58.798Z,0.00
2018-07-16T02:18:58.797Z,0.00
2018-07-16T02:19:58.797Z,0.00
2018-07-16T02:20:58.797Z,0.00
2018-07-16T02:21:58.799Z,0.00
2018-07-16T02:22:58.800Z,0.00
2018-07-16T02:23:58.798Z,0.00
2018-07-16T02:24:58.799Z,0.00
2018-07-16T02:25:58.799Z,0.00
2018-07-16T02:26:58.800Z,0.00
2018-07-16T02:27:58.798Z,0.00
2018-07-16T02:28:58.798Z,0.00
2018-07-16T02:29:58.800Z,0.00
2018-07-16T02:30:58.799Z,0.00
2018-07-16T02:31:58.802Z,0.00
2018-07-16T02:32:58.799Z,0.00
2018-07-16T02:33:58.804Z,0.00
2018-07-16T02:34:58.800Z,0.00
2018-07-16T02:35:58.799Z,0.00
2018-07-16T02:36:58.800Z,0.00
2018-07-16T02:37:58.802Z,0.00
2018-07-16T02:38:58.800Z,0.00
2018-07-16T02:39:58.800Z,0.00
2018-07-16T02:40:58.804Z,0.00
2018-07-16T02:41:58.801Z,0.00
2018-07-16T02:42:58.803Z,0.00
2018-07-16T02:43:58.801Z,0.00
2018-07-16T02:44:58.799Z,0.00
2018-07-16T02:45:58.802Z,0.00
2018-07-16T02:46:58.802Z,0.00
2018-07-16T02:47:58.800Z,0.00
2018-07-16T02:48:58.800Z,0.00
2018-07-16T02:49:58.800Z,0.00
2018-07-16T02:50:58.807Z,0.00
2018-07-16T02:51:58.803Z,0.00
2018-07-16T02:52:58.803Z,0.00
2018-07-16T02:53:58.801Z,0.00
2018-07-16T02:54:58.804Z,0.00
2018-07-16T02:55:58.801Z,0.00
2018-07-16T02:56:58.801Z,0.00
2018-07-16T02:57:58.801Z,0.00
2018-07-16T02:58:58.801Z,0.00
2018-07-16T02:59:58.801Z,0.00
2018-07-16T03:00:58.801Z,0.00
2018-07-16T03:01:58.802Z,0.00
2018-07-16T03:02:58.802Z,0.00
2018-07-16T03:03:58.800Z,0.00
2018-07-16T03:04:58.801Z,0.00
2018-07-16T03:05:58.801Z,0.00
2018-07-16T03:06:58.802Z,0.00
2018-07-16T03:07:58.802Z,0.00
2018-07-16T03:08:58.800Z,0.00
2018-07-16T03:09:58.802Z,0.00
2018-07-16T03:10:58.802Z,0.00
2018-07-16T03:11:58.800Z,0.00
2018-07-16T03:12:58.801Z,0.00
2018-07-16T03:13:58.804Z,0.00
2018-07-16T03:14:58.801Z,0.00
2018-07-16T03:15:58.800Z,0.00
2018-07-16T03:16:58.801Z,0.00
2018-07-16T03:17:58.821Z,0.00
2018-07-16T03:18:58.800Z,0.00
2018-07-16T03:19:58.800Z,0.00
2018-07-16T03:20:58.800Z,0.00
2018-07-16T03:21:58.801Z,0.00
2018-07-16T03:22:58.801Z,0.00
2018-07-16T03:23:58.807Z,0.00
2018-07-16T03:24:58.800Z,0.00
2018-07-16T03:25:58.800Z,0.00
2018-07-16T03:26:58.801Z,0.00
2018-07-16T03:27:58.801Z,0.00
2018-07-16T03:28:58.800Z,0.00
2018-07-16T03:29:58.801Z,0.00
2018-07-16T03:30:58.800Z,0.00
2018-07-16T03:31:58.801Z,0.00
2018-07-16T03:32:58.799Z,0.00
2018-07-16T03:33:58.801Z,0.00
2018-07-16T03:34:58.801Z,0.00
2018-07-16T03:35:58.798Z,0.00
2018-07-16T03:36:58.800Z,0.00
2018-07-16T03:37:58.799Z,0.00
2018-07-16T03:38:58.802Z,0.00
2018-07-16T03:39:58.800Z,0.00
2018-07-16T03:40:58.800Z,0.00
2018-07-16T03:41:58.799Z,0.00
2018-07-16T03:42:58.799Z,0.00
2018-07-16T03:43:58.799Z,0.00
2018-07-16T03:44:58.798Z,0.00
2018-07-16T03:45:58.800Z,0.00
2018-07-16T03:46:58.800Z,0.00
2018-07-16T03:47:58.862Z,0.00
2018-07-16T03:48:58.799Z,0.00
2018-07-16T03:49:58.801Z,0.00
2018-07-16T03:50:58.799Z,0.00
2018-07-16T03:51:58.798Z,0.00
2018-07-16T03:52:58.799Z,0.00
2018-07-16T03:53:58.799Z,0.00
2018-07-16T03:54:58.836Z,0.00
2018-07-16T03:55:58.884Z,0.00
2018-07-16T03:56:58.799Z,0.00
2018-07-16T03:57:58.799Z,0.00
2018-07-16T03:58:58.798Z,0.00
2018-07-16T03:59:58.803Z,0.00
2018-07-16T04:00:58.799Z,0.00
2018-07-16T04:01:58.798Z,0.00
2018-07-16T04:02:58.809Z,0.00
2018-07-16T04:03:58.797Z,0.00
2018-07-16T04:04:58.798Z,0.00
2018-07-16T04:05:58.799Z,0.00
2018-07-16T04:06:58.798Z,0.00
2018-07-16T04:07:58.805Z,0.00
2018-07-16T04:08:58.798Z,0.00
2018-07-16T04:09:58.805Z,0.00
2018-07-16T04:10:58.800Z,0.00
2018-07-16T04:11:58.804Z,0.00
2018-07-16T04:12:58.802Z,5.63
2018-07-16T04:13:58.802Z,5.63
2018-07-16T04:14:58.801Z,5.63
2018-07-16T04:15:58.804Z,5.63
2018-07-16T04:16:58.803Z,5.63
2018-07-16T04:17:58.798Z,5.63
2018-07-16T04:18:58.798Z,5.63
2018-07-16T04:19:58.800Z,5.63
2018-07-16T04:20:58.802Z,5.63
2018-07-16T04:21:58.798Z,5.63
2018-07-16T04:22:58.800Z,5.63
2018-07-16T04:23:58.798Z,5.63
2018-07-16T04:24:58.797Z,5.63
2018-07-16T04:25:58.801Z,5.63
2018-07-16T04:26:58.800Z,5.63
2018-07-16T04:27:58.797Z,5.63
2018-07-16T04:28:58.798Z,5.63
2018-07-16T04:29:58.799Z,5.63
2018-07-16T04:30:58.831Z,5.63
2018-07-16T04:31:58.799Z,5.63
2018-07-16T04:32:58.799Z,5.63
2018-07-16T04:33:58.799Z,5.63
2018-07-16T04:34:58.800Z,11.25
2018-07-16T04:35:58.798Z,11.25
2018-07-16T04:36:58.799Z,11.25
2018-07-16T04:37:58.800Z,11.25
2018-07-16T04:38:58.798Z,11.25
2018-07-16T04:39:58.875Z,11.25
2018-07-16T04:40:58.799Z,11.25
2018-07-16T04:41:58.799Z,11.25
2018-07-16T04:42:58.799Z,11.25
2018-07-16T04:43:58.799Z,11.25
2018-07-16T04:44:58.799Z,11.25
2018-07-16T04:45:58.802Z,11.25
2018-07-16T04:46:58.800Z,11.25
2018-07-16T04:47:58.799Z,11.25
2018-07-16T04:48:58.802Z,11.25
2018-07-16T04:49:58.800Z,11.25
2018-07-16T04:50:58.800Z,11.25
2018-07-16T04:51:58.800Z,11.25
2018-07-16T04:52:58.803Z,11.25
2018-07-16T04:53:58.801Z,11.25
2018-07-16T04:54:58.801Z,11.25
2018-07-16T04:55:58.800Z,11.25
2018-07-16T04:56:58.800Z,11.25
2018-07-16T04:57:58.799Z,16.88
2018-07-16T04:58:58.801Z,16.88
2018-07-16T04:59:58.800Z,16.88
2018-07-16T05:00:58.801Z,16.88
2018-07-16T05:01:58.801Z,16.88
2018-07-16T05:02:58.801Z,16.88
2018-07-16T05:03:58.800Z,16.88
2018-07-16T05:04:58.804Z,16.88
2018-07-16T05:05:58.804Z,16.88
2018-07-16T05:06:58.803Z,16.88
2018-07-16T05:07:58.800Z,16.88
2018-07-16T05:08:58.801Z,16.88
2018-07-16T05:09:58.800Z,11.25
2018-07-16T05:10:58.802Z,11.25
2018-07-16T05:11:58.801Z,11.25
2018-07-16T05:12:58.802Z,11.25
2018-07-16T05:13:58.802Z,11.25
2018-07-16T05:14:58.802Z,11.25
2018-07-16T05:15:58.802Z,11.25
2018-07-16T05:16:58.801Z,11.25
2018-07-16T05:17:58.876Z,16.88
2018-07-16T05:18:58.803Z,16.88
2018-07-16T05:19:58.803Z,16.88
2018-07-16T05:20:58.802Z,16.88
2018-07-16T05:21:58.803Z,16.88
2018-07-16T05:22:58.804Z,22.50
2018-07-16T05:23:58.809Z,22.50
2018-07-16T05:24:58.802Z,28.13
2018-07-16T05:25:58.836Z,28.13
2018-07-16T05:26:58.878Z,33.75
2018-07-16T05:27:58.803Z,33.75
2018-07-16T05:28:58.824Z,33.75
2018-07-16T05:29:58.921Z,33.75
2018-07-16T05:30:58.872Z,39.38
2018-07-16T05:31:58.865Z,39.38
2018-07-16T05:32:58.805Z,45.00
2018-07-16T05:33:58.804Z,45.00
2018-07-16T05:34:58.805Z,50.63
2018-07-16T05:35:58.804Z,50.63
2018-07-16T05:36:58.805Z,56.25
2018-07-16T05:37:58.911Z,56.25
2018-07-16T05:38:58.804Z,56.25
2018-07-16T05:39:58.807Z,56.25
2018-07-16T05:40:58.805Z,61.88
2018-07-16T05:41:58.805Z,61.88
2018-07-16T05:42:58.807Z,56.25
2018-07-16T05:43:58.926Z,56.25
2018-07-16T05:44:59.289Z,56.25
2018-07-16T05:45:58.806Z,56.25
2018-07-16T05:46:58.807Z,67.50
2018-07-16T05:47:58.805Z,78.75
2018-07-16T05:48:58.806Z,61.88
2018-07-16T05:49:58.806Z,67.50
2018-07-16T05:50:58.807Z,73.13
2018-07-16T05:51:58.805Z,73.13
2018-07-16T05:52:58.806Z,67.50
2018-07-16T05:53:58.807Z,61.88
2018-07-16T05:54:58.810Z,56.25
2018-07-16T05:55:58.807Z,61.88
2018-07-16T05:56:58.806Z,73.13
2018-07-16T05:57:58.806Z,78.75
2018-07-16T05:58:58.807Z,84.38
2018-07-16T05:59:58.806Z,84.38
2018-07-16T06:00:58.807Z,84.38
2018-07-16T06:01:58.808Z,84.38
2018-07-16T06:02:58.809Z,84.38
2018-07-16T06:03:58.907Z,84.38
2018-07-16T06:04:58.841Z,78.75
2018-07-16T06:05:58.838Z,78.75
2018-07-16T06:06:58.808Z,78.75
2018-07-16T06:07:58.828Z,84.38
2018-07-16T06:08:58.828Z,84.38
2018-07-16T06:09:58.808Z,78.75
2018-07-16T06:10:58.807Z,78.75
2018-07-16T06:11:58.808Z,73.13
2018-07-16T06:12:58.809Z,73.13
2018-07-16T06:13:58.808Z,78.75
2018-07-16T06:14:58.808Z,73.13
2018-07-16T06:15:58.808Z,73.13
2018-07-16T06:16:58.809Z,78.75
2018-07-16T06:17:58.809Z,73.13
2018-07-16T06:18:58.810Z,67.50
2018-07-16T06:19:58.809Z,61.88
2018-07-16T06:20:58.809Z,61.88
2018-07-16T06:21:58.810Z,61.88
2018-07-16T06:22:58.810Z,56.25
2018-07-16T06:23:58.861Z,45.00
2018-07-16T06:24:58.812Z,39.38
2018-07-16T06:25:58.811Z,39.38
2018-07-16T06:26:58.812Z,45.00
2018-07-16T06:27:58.811Z,50.63
2018-07-16T06:28:58.827Z,61.88
2018-07-16T06:29:58.812Z,61.88
2018-07-16T06:30:58.813Z,61.88
2018-07-16T06:31:58.813Z,61.88
2018-07-16T06:32:58.814Z,61.88
2018-07-16T06:33:58.815Z,67.50
2018-07-16T06:34:58.814Z,84.38
2018-07-16T06:35:59.140Z,95.63
2018-07-16T06:36:58.815Z,106.88
2018-07-16T06:37:58.816Z,101.25
2018-07-16T06:38:58.818Z,95.63
2018-07-16T06:39:58.896Z,90.00
2018-07-16T06:40:58.970Z,95.63
2018-07-16T06:41:58.819Z,106.88
2018-07-16T06:42:58.820Z,106.88
2018-07-16T06:43:58.820Z,106.88
2018-07-16T06:44:58.821Z,106.88
2018-07-16T06:45:58.822Z,101.25
2018-07-16T06:46:58.824Z,101.25
2018-07-16T06:47:58.823Z,90.00
2018-07-16T06:48:58.860Z,90.00
2018-07-16T06:49:58.827Z,90.00
2018-07-16T06:50:58.835Z,95.63
2018-07-16T06:51:58.830Z,101.25
2018-07-16T06:52:58.829Z,106.88
2018-07-16T06:53:58.829Z,106.88
2018-07-16T06:54:58.885Z,123.75
2018-07-16T06:55:58.832Z,140.63
2018-07-16T06:56:58.834Z,140.63
2018-07-16T06:57:58.835Z,140.63
2018-07-16T06:58:58.835Z,140.63
2018-07-16T06:59:58.835Z,146.25
2018-07-16T07:00:58.837Z,146.25
2018-07-16T07:01:58.838Z,146.25
2018-07-16T07:02:58.839Z,140.63
2018-07-16T07:03:58.914Z,146.25
2018-07-16T07:04:58.840Z,151.88
2018-07-16T07:05:58.842Z,168.75
2018-07-16T07:06:58.850Z,174.38
2018-07-16T07:07:59.053Z,236.25
2018-07-16T07:08:58.845Z,236.25
2018-07-16T07:09:58.857Z,219.38
2018-07-16T07:10:58.848Z,157.50
2018-07-16T07:11:58.915Z,146.25
2018-07-16T07:12:58.849Z,151.88
2018-07-16T07:13:58.854Z,168.75
2018-07-16T07:14:58.854Z,174.38
2018-07-16T07:15:58.854Z,191.25
2018-07-16T07:16:58.857Z,196.88
2018-07-16T07:17:58.857Z,230.63
2018-07-16T07:18:59.157Z,236.25
2018-07-16T07:19:58.861Z,208.13
2018-07-16T07:20:58.862Z,247.50
2018-07-16T07:21:58.866Z,270.00
2018-07-16T07:22:58.869Z,264.38
2018-07-16T07:23:58.868Z,270.00
2018-07-16T07:24:58.870Z,281.25
2018-07-16T07:25:58.872Z,303.75
2018-07-16T07:26:58.875Z,630.00
2018-07-16T07:27:58.877Z,866.25
2018-07-16T07:28:58.881Z,506.25
2018-07-16T07:29:58.881Z,343.13
2018-07-16T07:30:58.886Z,635.63
2018-07-16T07:31:58.886Z,495.00
2018-07-16T07:32:58.890Z,624.38
2018-07-16T07:33:58.892Z,658.13
2018-07-16T07:34:58.963Z,511.88
2018-07-16T07:35:58.989Z,1243.13
2018-07-16T07:36:58.904Z,1378.13
2018-07-16T07:37:58.911Z,1951.88
2018-07-16T07:38:58.916Z,331.88
2018-07-16T07:39:58.920Z,208.13
2018-07-16T07:40:58.946Z,202.50
2018-07-16T07:41:58.931Z,219.38
2018-07-16T07:42:58.935Z,219.38
2018-07-16T07:43:58.938Z,236.25
2018-07-16T07:44:58.944Z,213.75
2018-07-16T07:45:58.949Z,219.38
2018-07-16T07:46:58.953Z,438.75
2018-07-16T07:47:58.957Z,405.00
2018-07-16T07:48:58.960Z,292.50
2018-07-16T07:49:58.965Z,298.13
2018-07-16T07:50:58.971Z,303.75
2018-07-16T07:51:58.974Z,320.63
2018-07-16T07:52:58.979Z,365.63
2018-07-16T07:53:59.256Z,320.63
2018-07-16T07:54:59.172Z,506.25
2018-07-16T07:55:58.992Z,765.00
2018-07-16T07:56:58.997Z,900.00
2018-07-16T07:57:59.142Z,663.75
2018-07-16T07:58:59.007Z,990.00
2018-07-16T07:59:59.010Z,1586.25
2018-07-16T08:00:59.315Z,2250.00
2018-07-16T08:01:59.021Z,2030.63
2018-07-16T08:02:59.026Z,1327.50
2018-07-16T08:03:59.032Z,545.63
2018-07-16T08:04:59.039Z,444.38
2018-07-16T08:05:59.049Z,483.75
2018-07-16T08:06:59.049Z,354.38
2018-07-16T08:07:59.056Z,303.75
2018-07-16T08:08:59.061Z,298.13
2018-07-16T08:09:59.068Z,315.00
2018-07-16T08:10:59.073Z,360.00
2018-07-16T08:11:59.078Z,562.50
2018-07-16T08:12:59.084Z,472.50
2018-07-16T08:13:59.092Z,787.50
2018-07-16T08:14:59.327Z,787.50
2018-07-16T08:15:59.100Z,815.63
2018-07-16T08:16:59.186Z,1333.13
2018-07-16T08:17:59.224Z,995.63
2018-07-16T08:18:59.212Z,770.63
2018-07-16T08:19:59.177Z,1029.38
2018-07-16T08:20:59.147Z,1530.00
2018-07-16T08:21:59.135Z,2497.50
2018-07-16T08:22:59.140Z,1580.63
2018-07-16T08:23:59.147Z,1485.00
2018-07-16T08:24:59.152Z,1434.38
2018-07-16T08:25:59.160Z,1597.50
2018-07-16T08:26:59.169Z,1631.25
2018-07-16T08:27:59.215Z,2154.38
2018-07-16T08:28:59.182Z,2356.88
2018-07-16T08:29:59.190Z,2396.25
2018-07-16T08:30:59.202Z,2430.00
2018-07-16T08:31:59.211Z,2441.25
2018-07-16T08:32:59.217Z,2340.00
2018-07-16T08:33:59.306Z,2368.13
2018-07-16T08:34:59.239Z,2250.00
2018-07-16T08:35:59.249Z,2632.50
2018-07-16T08:36:59.261Z,2396.25
2018-07-16T08:37:59.271Z,2289.38
2018-07-16T08:38:59.340Z,2508.75
2018-07-16T08:39:59.294Z,2401.88
2018-07-16T08:40:59.308Z,2244.38
2018-07-16T08:41:59.320Z,2278.13
2018-07-16T08:42:59.332Z,2176.88
2018-07-16T08:43:59.342Z,2210.63
2018-07-16T08:44:59.357Z,2289.38
2018-07-16T08:45:59.370Z,2266.88
2018-07-16T08:46:59.508Z,2053.13
2018-07-16T08:47:59.396Z,1940.63
2018-07-16T08:48:59.408Z,1991.25
2018-07-16T08:49:59.423Z,2137.50
2018-07-16T08:50:59.438Z,2244.38
2018-07-16T08:51:59.505Z,2165.63
2018-07-16T08:52:59.464Z,2103.75
2018-07-16T08:53:59.476Z,2160.00
2018-07-16T08:54:59.492Z,1968.75
2018-07-16T08:55:59.505Z,1906.88
2018-07-16T08:56:59.520Z,2154.38
2018-07-16T08:57:59.533Z,2109.38
2018-07-16T08:58:59.546Z,1918.13
2018-07-16T08:59:59.560Z,1951.88
2018-07-16T09:00:59.575Z,1940.63
2018-07-16T09:01:59.590Z,1890.00
2018-07-16T09:02:59.604Z,2092.50
2018-07-16T09:03:59.672Z,2210.63
2018-07-16T09:04:59.632Z,2002.50
2018-07-16T09:05:59.647Z,2075.63
2018-07-16T09:06:59.663Z,1670.63
2018-07-16T09:07:59.675Z,995.63
2018-07-16T09:08:59.690Z,765.00
2018-07-16T09:09:59.702Z,765.00
2018-07-16T09:10:59.754Z,821.25
2018-07-16T09:11:59.729Z,658.13
2018-07-16T09:12:59.741Z,967.50
2018-07-16T09:13:59.760Z,1091.25
2018-07-16T09:14:59.769Z,731.25
2018-07-16T09:15:59.781Z,990.00
2018-07-16T09:16:59.831Z,978.75
2018-07-16T09:17:59.803Z,888.75
2018-07-16T09:18:59.815Z,815.63
2018-07-16T09:19:59.832Z,1029.38
2018-07-16T09:20:59.838Z,984.38
2018-07-16T09:21:59.852Z,1130.63
2018-07-16T09:22:59.860Z,961.88
2018-07-16T09:23:59.871Z,1108.13
2018-07-16T09:24:59.882Z,1338.75
2018-07-16T09:26:00.186Z,1350.00
2018-07-16T09:26:59.906Z,1541.25
2018-07-16T09:27:59.915Z,1423.13
2018-07-16T09:28:59.928Z,1681.88
2018-07-16T09:29:59.938Z,1226.25
2018-07-16T09:30:59.948Z,1389.38
2018-07-16T09:31:59.960Z,1473.75
2018-07-16T09:33:00.519Z,1366.88
2018-07-16T09:34:00.036Z,1080.00
2018-07-16T09:34:59.998Z,1243.13
2018-07-16T09:36:00.224Z,1074.38
2018-07-16T09:37:00.021Z,1563.75
2018-07-16T09:38:00.033Z,1490.63
2018-07-16T09:39:00.061Z,1293.75
2018-07-16T09:40:00.264Z,1350.00
2018-07-16T09:41:00.067Z,1462.50
2018-07-16T09:42:00.080Z,1113.75
2018-07-16T09:43:00.088Z,1395.00
2018-07-16T09:44:00.108Z,1361.25
2018-07-16T09:45:00.115Z,1389.38
2018-07-16T09:46:00.125Z,1411.88
2018-07-16T09:47:00.472Z,1411.88
2018-07-16T09:48:00.148Z,1344.38
2018-07-16T09:49:00.162Z,1282.50
2018-07-16T09:50:00.227Z,1395.00
2018-07-16T09:51:00.188Z,1344.38
2018-07-16T09:52:00.198Z,1288.13
2018-07-16T09:53:00.212Z,1321.88
2018-07-16T09:54:00.521Z,1271.25
2018-07-16T09:55:00.238Z,1305.00
2018-07-16T09:56:00.292Z,1366.88
2018-07-16T09:57:00.718Z,1299.38
2018-07-16T09:58:00.277Z,1237.50
2018-07-16T09:59:00.289Z,1299.38
2018-07-16T10:00:00.415Z,1276.88
2018-07-16T10:01:00.318Z,1395.00
2018-07-16T10:02:00.491Z,1636.88
2018-07-16T10:03:00.343Z,1676.25
2018-07-16T10:04:00.416Z,1856.25
2018-07-16T10:05:00.576Z,1473.75
2018-07-16T10:06:00.380Z,832.50
2018-07-16T10:07:00.749Z,680.63
2018-07-16T10:08:00.466Z,601.88
2018-07-16T10:09:00.451Z,568.13
2018-07-16T10:10:00.514Z,556.88
2018-07-16T10:11:00.445Z,568.13
2018-07-16T10:12:00.458Z,579.38
2018-07-16T10:13:00.468Z,607.50
2018-07-16T10:14:00.483Z,646.88
2018-07-16T10:15:00.498Z,691.88
2018-07-16T10:16:00.509Z,765.00
2018-07-16T10:17:00.565Z,905.63
2018-07-16T10:18:00.535Z,990.00
2018-07-16T10:19:00.549Z,1023.75
2018-07-16T10:20:00.561Z,1057.50
2018-07-16T10:21:00.573Z,1080.00
2018-07-16T10:22:00.590Z,1237.50
2018-07-16T10:23:00.599Z,1586.25
2018-07-16T10:24:00.616Z,1783.13
2018-07-16T10:25:00.625Z,1755.00
2018-07-16T10:26:00.637Z,1681.88
2018-07-16T10:27:00.649Z,1310.63
2018-07-16T10:28:00.661Z,826.88
2018-07-16T10:29:00.673Z,686.25
2018-07-16T10:30:00.686Z,635.63
2018-07-16T10:31:00.699Z,596.25
2018-07-16T10:32:00.711Z,562.50
2018-07-16T10:33:00.724Z,523.13
2018-07-16T10:34:00.844Z,500.63
2018-07-16T10:35:00.749Z,483.75
2018-07-16T10:36:00.760Z,478.13
2018-07-16T10:37:00.775Z,461.25
2018-07-16T10:38:00.786Z,444.38
2018-07-16T10:39:00.796Z,427.50
2018-07-16T10:40:00.807Z,427.50
2018-07-16T10:41:00.819Z,416.25
2018-07-16T10:42:00.832Z,416.25
2018-07-16T10:43:00.842Z,410.63
2018-07-16T10:44:00.854Z,405.00
2018-07-16T10:45:00.867Z,405.00
2018-07-16T10:46:00.878Z,399.38
2018-07-16T10:47:00.890Z,399.38
2018-07-16T10:48:00.902Z,393.75
2018-07-16T10:49:00.916Z,388.13
2018-07-16T10:50:00.925Z,393.75
2018-07-16T10:51:00.937Z,388.13
2018-07-16T10:52:00.948Z,382.50
2018-07-16T10:53:00.959Z,382.50
2018-07-16T10:54:00.970Z,376.88
2018-07-16T10:55:00.985Z,371.25
2018-07-16T10:56:00.993Z,371.25
2018-07-16T10:57:01.005Z,371.25
2018-07-16T10:58:01.016Z,376.88
2018-07-16T10:59:01.028Z,382.50
2018-07-16T11:00:01.038Z,382.50
2018-07-16T11:01:01.105Z,382.50
2018-07-16T11:02:01.121Z,399.38
2018-07-16T11:03:01.124Z,399.38
2018-07-16T11:04:01.087Z,405.00
2018-07-16T11:05:01.097Z,410.63
2018-07-16T11:06:01.108Z,416.25
2018-07-16T11:07:01.127Z,427.50
2018-07-16T11:08:01.134Z,438.75
2018-07-16T11:09:01.142Z,450.00
2018-07-16T11:10:01.156Z,466.88
2018-07-16T11:11:01.167Z,478.13
2018-07-16T11:12:01.177Z,500.63
2018-07-16T11:13:01.189Z,517.50
2018-07-16T11:14:01.199Z,545.63
2018-07-16T11:15:01.260Z,551.25
2018-07-16T11:16:01.223Z,545.63
2018-07-16T11:17:01.238Z,523.13
2018-07-16T11:18:01.246Z,506.25
2018-07-16T11:19:01.259Z,495.00
2018-07-16T11:20:01.270Z,483.75
2018-07-16T11:21:01.374Z,483.75
2018-07-16T11:22:01.295Z,489.38
2018-07-16T11:23:01.305Z,489.38
2018-07-16T11:24:01.319Z,483.75
2018-07-16T11:25:01.329Z,444.38
2018-07-16T11:26:01.341Z,438.75
2018-07-16T11:27:01.353Z,433.13
2018-07-16T11:28:01.366Z,427.50
2018-07-16T11:29:01.380Z,427.50
2018-07-16T11:30:01.388Z,416.25
2018-07-16T11:31:01.402Z,405.00
2018-07-16T11:32:02.365Z,388.13
2018-07-16T11:33:01.677Z,376.88
2018-07-16T11:34:01.543Z,376.88
2018-07-16T11:35:01.879Z,365.63
2018-07-16T11:36:01.458Z,354.38
2018-07-16T11:37:01.470Z,348.75
2018-07-16T11:38:01.480Z,348.75
2018-07-16T11:39:01.495Z,348.75
2018-07-16T11:40:01.503Z,343.13
2018-07-16T11:41:01.514Z,343.13
2018-07-16T11:42:01.785Z,343.13
2018-07-16T11:43:01.826Z,348.75
2018-07-16T11:44:01.826Z,360.00
2018-07-16T11:45:02.062Z,365.63
2018-07-16T11:46:01.625Z,371.25
2018-07-16T11:47:01.579Z,371.25
2018-07-16T11:48:01.589Z,376.88
2018-07-16T11:49:01.662Z,365.63
2018-07-16T11:50:01.611Z,388.13
2018-07-16T11:51:01.938Z,213.75
2018-07-16T11:52:02.440Z,174.38
2018-07-16T11:53:01.931Z,163.13
2018-07-16T11:54:01.946Z,382.50
2018-07-16T11:55:01.664Z,405.00
2018-07-16T11:56:02.005Z,410.63
2018-07-16T11:57:01.896Z,410.63
2018-07-16T11:58:01.989Z,399.38
2018-07-16T11:59:01.800Z,405.00
2018-07-16T12:00:01.710Z,399.38
2018-07-16T12:01:01.774Z,399.38
2018-07-16T12:02:01.732Z,163.13
2018-07-16T12:03:01.741Z,157.50
2018-07-16T12:04:01.807Z,151.88
2018-07-16T12:05:01.769Z,146.25
2018-07-16T12:06:01.769Z,140.63
2018-07-16T12:07:02.023Z,140.63
2018-07-16T12:08:02.029Z,140.63
2018-07-16T12:09:02.093Z,157.50
2018-07-16T12:10:02.054Z,151.88
2018-07-16T12:11:02.095Z,140.63
2018-07-16T12:12:02.100Z,129.38
2018-07-16T12:13:02.012Z,112.50
2018-07-16T12:14:02.072Z,95.63
2018-07-16T12:15:02.376Z,90.00
2018-07-16T12:16:02.129Z,90.00
2018-07-16T12:17:02.105Z,84.38
2018-07-16T12:18:02.181Z,84.38
2018-07-16T12:19:01.992Z,90.00
2018-07-16T12:20:02.097Z,106.88
2018-07-16T12:21:02.006Z,118.13
2018-07-16T12:22:02.115Z,129.38
2018-07-16T12:23:02.135Z,129.38
2018-07-16T12:24:02.461Z,118.13
2018-07-16T12:25:02.065Z,112.50
2018-07-16T12:26:02.242Z,101.25
2018-07-16T12:27:02.151Z,95.63
2018-07-16T12:28:02.241Z,90.00
2018-07-16T12:29:02.247Z,90.00
2018-07-16T12:30:02.182Z,95.63
2018-07-16T12:31:02.175Z,106.88
2018-07-16T12:32:02.221Z,118.13
2018-07-16T12:33:02.200Z,135.00
2018-07-16T12:34:02.071Z,135.00
2018-07-16T12:35:02.113Z,382.50
2018-07-16T12:36:02.183Z,371.25
2018-07-16T12:37:02.406Z,376.88
2018-07-16T12:38:02.201Z,376.88
2018-07-16T12:39:02.258Z,371.25
2018-07-16T12:40:02.161Z,371.25
2018-07-16T12:41:02.025Z,371.25
2018-07-16T12:42:02.031Z,371.25
2018-07-16T12:43:02.039Z,365.63
2018-07-16T12:44:02.046Z,354.38
2018-07-16T12:45:02.461Z,348.75
2018-07-16T12:46:02.300Z,343.13
2018-07-16T12:47:02.168Z,337.50